createdAt,value
2022-10-26T00:01:48.861Z,52.07
2022-10-26T00:06:50.752Z,52.41
2022-10-26T00:11:53.007Z,51.91
2022-10-26T00:16:55.102Z,51.89
2022-10-26T00:21:56.854Z,52.35
2022-10-26T00:26:58.621Z,52.26
2022-10-26T00:32:00.589Z,52.29
2022-10-26T00:37:02.374Z,52.10
2022-10-26T00:42:04.350Z,52.26
2022-10-26T00:47:06.528Z,52.87
2022-10-26T00:52:09.393Z,52.87
2022-10-26T00:57:13.825Z,52.76
2022-10-26T01:02:15.800Z,52.91
2022-10-26T01:07:17.772Z,53.27
2022-10-26T01:12:19.583Z,53.33
2022-10-26T01:17:57.112Z,53.60
2022-10-26T01:23:19.196Z,53.41
2022-10-26T01:28:47.034Z,53.69
2022-10-26T01:34:04.087Z,53.87
2022-10-26T01:39:09.048Z,53.76
2022-10-26T01:44:16.797Z,53.96
2022-10-26T01:49:23.124Z,54.06
2022-10-26T01:54:24.976Z,54.02
2022-10-26T01:59:45.705Z,54.02
2022-10-26T02:04:55.847Z,53.50
2022-10-26T02:10:09.842Z,53.60
2022-10-26T02:15:27.185Z,53.67
2022-10-26T02:20:33.933Z,53.96
2022-10-26T02:25:42.194Z,53.98
2022-10-26T02:30:45.523Z,54.84
2022-10-26T02:35:50.994Z,54.65
2022-10-26T02:40:54.524Z,54.37
2022-10-26T02:46:14.026Z,54.59
2022-10-26T02:51:34.832Z,54.36
2022-10-26T02:56:51.737Z,55.09
2022-10-26T03:01:54.163Z,55.09
2022-10-26T03:06:55.989Z,54.85
2022-10-26T03:11:57.780Z,54.59
2022-10-26T03:16:59.599Z,54.82
2022-10-26T03:22:01.395Z,55.05
2022-10-26T03:27:03.285Z,54.82
2022-10-26T03:32:05.467Z,54.85
2022-10-26T03:37:07.261Z,54.79
2022-10-26T03:42:09.069Z,54.96
2022-10-26T03:47:10.848Z,55.19
2022-10-26T03:52:12.668Z,55.09
2022-10-26T03:57:14.462Z,54.96
2022-10-26T04:02:16.517Z,55.21
2022-10-26T04:07:18.376Z,55.38
2022-10-26T04:12:20.241Z,55.14
2022-10-26T04:17:22.022Z,54.86
2022-10-26T04:22:23.837Z,55.11
2022-10-26T04:27:25.623Z,55.29
2022-10-26T04:32:27.636Z,55.03
2022-10-26T04:37:29.482Z,54.94
2022-10-26T04:42:37.742Z,54.86
2022-10-26T04:47:39.760Z,55.01
2022-10-26T04:52:41.622Z,55.40
2022-10-26T04:57:45.144Z,55.24
2022-10-26T05:02:46.987Z,55.09
2022-10-26T05:07:56.940Z,55.07
2022-10-26T05:13:00.288Z,54.87
2022-10-26T05:18:05.550Z,55.11
2022-10-26T05:23:11.590Z,55.17
2022-10-26T05:28:14.980Z,55.32
2022-10-26T05:33:16.927Z,54.97
2022-10-26T05:38:18.781Z,54.87
2022-10-26T05:43:23.220Z,55.24
2022-10-26T05:48:25.010Z,55.10
2022-10-26T05:53:27.136Z,55.27
2022-10-26T05:58:29.238Z,55.01
2022-10-26T06:03:56.914Z,55.15
2022-10-26T06:08:58.981Z,55.30
2022-10-26T06:14:01.333Z,55.12
2022-10-26T06:19:21.644Z,55.10
2022-10-26T06:24:29.585Z,55.08
2022-10-26T06:29:54.679Z,55.29
2022-10-26T06:35:06.921Z,55.12
2022-10-26T06:40:11.211Z,55.21
2022-10-26T06:50:21.516Z,54.99
2022-10-26T06:55:23.841Z,55.14
2022-10-26T07:00:26.099Z,55.11
2022-10-26T07:05:28.252Z,54.93
2022-10-26T07:10:30.258Z,55.23
2022-10-26T07:15:32.601Z,54.63
2022-10-26T07:20:39.644Z,54.74
2022-10-26T07:25:41.833Z,54.37
2022-10-26T07:30:43.728Z,54.34
2022-10-26T07:35:46.666Z,54.19
2022-10-26T07:40:50.725Z,53.95
2022-10-26T07:45:52.761Z,53.80
2022-10-26T07:50:54.843Z,53.41
2022-10-26T07:55:58.004Z,53.35
2022-10-26T08:01:07.659Z,53.49
2022-10-26T08:06:10.626Z,53.22
2022-10-26T08:11:12.470Z,53.49
2022-10-26T08:16:14.469Z,53.09
2022-10-26T08:21:21.797Z,52.75
2022-10-26T08:26:28.374Z,52.56
2022-10-26T08:31:30.489Z,52.43
2022-10-26T08:36:32.332Z,52.29
2022-10-26T08:41:38.012Z,52.13
2022-10-26T08:46:45.762Z,51.85
2022-10-26T08:51:51.105Z,52.08
2022-10-26T08:56:57.562Z,52.07
2022-10-26T09:02:04.812Z,51.97
2022-10-26T09:07:26.283Z,52.09
2022-10-26T09:12:52.401Z,52.16
2022-10-26T09:18:12.998Z,52.34
2022-10-26T09:23:42.085Z,52.70
2022-10-26T09:28:48.251Z,52.88
2022-10-26T09:33:51.600Z,52.80
2022-10-26T09:39:22.507Z,53.00
2022-10-26T09:44:45.053Z,52.71
2022-10-26T09:49:55.920Z,52.40
2022-10-26T09:54:57.710Z,52.21
2022-10-26T09:59:59.632Z,51.85
2022-10-26T10:05:02.075Z,51.73
2022-10-26T10:10:17.080Z,51.34
2022-10-26T10:15:24.133Z,51.10
2022-10-26T10:20:32.846Z,50.94
2022-10-26T10:25:37.729Z,50.49
2022-10-26T10:30:53.561Z,50.30
2022-10-26T10:35:55.409Z,49.10
2022-10-26T10:40:59.817Z,47.77
2022-10-26T10:46:01.832Z,44.93
2022-10-26T10:51:12.585Z,43.18
2022-10-26T10:56:27.722Z,43.32
2022-10-26T11:01:40.814Z,42.85
2022-10-26T11:06:45.166Z,42.26
2022-10-26T11:12:10.378Z,42.23
2022-10-26T11:17:25.870Z,41.68
2022-10-26T11:22:59.414Z,42.66
2022-10-26T11:28:16.620Z,42.79
2022-10-26T11:33:31.152Z,43.51
2022-10-26T11:38:59.940Z,43.66
2022-10-26T11:44:22.339Z,42.95
2022-10-26T11:49:43.002Z,42.44
2022-10-26T11:54:53.447Z,41.98
2022-10-26T11:59:57.522Z,42.28
2022-10-26T12:05:08.244Z,41.79
2022-10-26T12:10:26.087Z,42.05
2022-10-26T12:16:05.910Z,41.28
2022-10-26T12:21:09.835Z,41.45
2022-10-26T12:26:34.701Z,41.55
2022-10-26T12:31:36.455Z,41.46
2022-10-26T12:36:56.685Z,41.47
2022-10-26T12:42:04.458Z,41.69
2022-10-26T12:47:06.654Z,41.44
2022-10-26T12:52:19.938Z,41.38
2022-10-26T12:57:55.826Z,40.88
2022-10-26T13:03:22.166Z,41.00
2022-10-26T13:08:24.844Z,41.75
2022-10-26T13:13:26.996Z,41.87
2022-10-26T13:18:30.113Z,42.20
2022-10-26T13:23:34.941Z,41.98
2022-10-26T13:28:39.779Z,42.23
2022-10-26T13:33:43.454Z,40.81
2022-10-26T13:38:47.266Z,40.39
2022-10-26T13:43:51.595Z,40.53
2022-10-26T13:49:01.633Z,41.18
2022-10-26T13:54:14.255Z,41.64
2022-10-26T13:59:16.260Z,41.53
2022-10-26T14:04:28.745Z,41.61
2022-10-26T14:09:31.184Z,39.21
2022-10-26T14:14:36.371Z,36.21
2022-10-26T14:19:40.963Z,36.55
2022-10-26T14:24:52.027Z,37.82
2022-10-26T14:30:22.147Z,39.06
2022-10-26T14:35:18.416Z,40.28
2022-10-26T14:40:23.823Z,40.77
2022-10-26T14:45:50.441Z,41.14
2022-10-26T14:51:03.881Z,41.58
2022-10-26T14:56:18.175Z,41.93
2022-10-26T15:01:23.123Z,42.32
2022-10-26T15:06:28.275Z,42.55
2022-10-26T15:11:32.187Z,42.85
2022-10-26T15:16:35.291Z,42.98
2022-10-26T15:21:41.708Z,43.21
2022-10-26T15:26:43.790Z,43.36
2022-10-26T15:31:45.623Z,43.65
2022-10-26T15:36:47.433Z,43.91
2022-10-26T15:41:49.523Z,44.34
2022-10-26T15:46:51.467Z,44.54
2022-10-26T15:51:53.471Z,44.59
2022-10-26T15:56:56.257Z,44.74
2022-10-26T16:01:58.340Z,44.83
2022-10-26T16:07:05.485Z,45.12
2022-10-26T16:12:11.730Z,45.31
2022-10-26T16:17:13.591Z,46.59
2022-10-26T16:22:15.427Z,47.14
2022-10-26T16:27:17.547Z,47.37
2022-10-26T16:32:19.372Z,47.49
2022-10-26T16:37:21.187Z,47.89
2022-10-26T16:42:22.974Z,48.17
2022-10-26T16:47:25.664Z,48.97
2022-10-26T16:52:27.467Z,48.77
2022-10-26T16:57:29.337Z,48.85
2022-10-26T17:02:31.240Z,48.76
2022-10-26T17:07:33.241Z,48.86
2022-10-26T17:12:35.063Z,49.10
2022-10-26T17:17:36.912Z,48.61
2022-10-26T17:22:38.782Z,48.17
2022-10-26T17:27:44.877Z,48.12
2022-10-26T17:32:48.897Z,48.35
2022-10-26T17:37:51.140Z,48.53
2022-10-26T17:42:53.595Z,48.39
2022-10-26T17:47:55.898Z,48.38
2022-10-26T17:52:57.718Z,48.30
2022-10-26T17:57:59.580Z,48.30
2022-10-26T18:03:01.369Z,48.32
2022-10-26T18:08:03.529Z,48.32
2022-10-26T18:13:05.354Z,48.01
2022-10-26T18:18:07.157Z,48.06
2022-10-26T18:23:09.109Z,48.09
2022-10-26T18:33:13.770Z,48.30
2022-10-26T18:38:15.561Z,48.56
2022-10-26T18:43:17.414Z,48.43
2022-10-26T18:48:19.408Z,48.65
2022-10-26T18:53:21.378Z,48.90
2022-10-26T18:58:23.242Z,49.24
2022-10-26T19:03:25.020Z,49.32
2022-10-26T19:08:27.993Z,50.00
2022-10-26T19:13:30.625Z,50.51
2022-10-26T19:18:33.302Z,50.47
2022-10-26T19:23:38.266Z,50.49
2022-10-26T19:28:40.659Z,50.75
2022-10-26T19:33:42.523Z,50.79
2022-10-26T19:38:44.741Z,51.20
2022-10-26T19:43:46.625Z,51.53
2022-10-26T19:48:54.103Z,51.70
2022-10-26T19:53:57.951Z,51.77
2022-10-26T19:59:03.365Z,51.74
2022-10-26T20:04:06.359Z,51.80
2022-10-26T20:09:08.324Z,51.77
2022-10-26T20:14:13.765Z,52.13
2022-10-26T20:19:15.598Z,51.93
2022-10-26T20:24:17.413Z,52.12
2022-10-26T20:29:19.949Z,52.36
2022-10-26T20:34:21.931Z,53.45
2022-10-26T20:39:24.393Z,53.72
2022-10-26T20:44:31.877Z,53.94
2022-10-26T20:49:33.890Z,53.86
2022-10-26T20:54:48.206Z,53.94
2022-10-26T20:59:56.031Z,54.26
2022-10-26T21:04:58.018Z,54.28
2022-10-26T21:09:59.933Z,54.65
2022-10-26T21:15:01.839Z,54.98
2022-10-26T21:20:03.815Z,55.18
2022-10-26T21:25:06.067Z,55.34
2022-10-26T21:30:08.589Z,55.18
2022-10-26T21:35:10.500Z,55.51
2022-10-26T21:40:13.366Z,55.46
2022-10-26T21:45:15.185Z,55.37
2022-10-26T21:50:17.178Z,55.04
2022-10-26T21:55:19.053Z,55.21
2022-10-26T22:00:20.886Z,54.88
2022-10-26T22:05:22.727Z,54.97
2022-10-26T22:10:24.584Z,55.02
2022-10-26T22:15:26.375Z,55.34
2022-10-26T22:20:28.171Z,55.27
2022-10-26T22:25:32.214Z,54.96
2022-10-26T22:30:36.860Z,54.65
2022-10-26T22:35:38.669Z,54.50
2022-10-26T22:40:40.418Z,54.52
2022-10-26T22:45:42.156Z,54.61
2022-10-26T22:50:43.915Z,55.14
2022-10-26T22:55:45.936Z,55.01
2022-10-26T23:00:47.736Z,54.76
2022-10-26T23:05:49.600Z,54.83
2022-10-26T23:10:51.494Z,54.61
2022-10-26T23:15:53.262Z,54.64
2022-10-26T23:20:55.036Z,54.75
2022-10-26T23:26:04.260Z,54.97
2022-10-26T23:31:06.827Z,54.92
2022-10-26T23:36:08.560Z,54.92
2022-10-26T23:41:12.842Z,54.69
2022-10-26T23:46:15.118Z,55.07
2022-10-26T23:51:16.907Z,55.53
2022-10-26T23:56:18.648Z,56.33
